Mooreland, Indiana
Current Conditions -  °F | °C
As of 3:21 PM on Sunday 25 Jan 2015 (Local Time) from KMIE Reporting Station
Light Snow Light Snow  
Wind Chill: 22°   Ceiling: 600
Heat Index: 32°   Visibility: 1mi
Dew Point: 31°   Wind: 15mph
Humidity: 96%   Direction: 70°ENE
Pressure: 29.68"   Gusts: NA
Location:  40°N, 85.25°W
Report Text: KMIE 252021Z 07013KT 1SM -SN BR OVC006 00/M01 A2968 RMK AO2 P0001 T00001006
Loading
Personal Weather Stations






























Interactive Weather Map New forecast layout! Learn more

10-Day Weather Forecast

Advertisements
Track Severe Weather on mobile